METAR AND TAF INFORMATION
METAR FOR SECU
ADDS - METARS form results

(1501 UTC 26 October 2020)
Data provider http://aviationweather.gov/metar/data/
 
METAR text: SECU 261500Z 33002KT 9999 BKN020 BKN040 17/12 Q1028
Conditions at: SECU (CUENCA/MARISCAL , EC) observed 1500 UTC 26 October 2020
Temperature: 17.0°C (63°F)
Dewpoint: 12.0°C (54°F) [RH = 72%]
Pressure (altimeter): 30.35 inches Hg (1028.0 mb)
Winds: from the NNW (330 degrees) at 2 MPH (2 knots; 1.0 m/s)
Visibility: 6 or more miles (10+ km)
Ceiling: 2000 feet AGL
Clouds: broken clouds at 2000 feet AGL
broken clouds at 4000 feet AGL
Weather: no significant weather observed at this time

 AIRPORT MAP

 RUNWAY INFORMATION
Runway 05 Runway length 6234 ft Runway width 118 ft
Runway elevation 8306 ft Runway displaced threshold 0 ft Runway heading 52
Runway 23 Runway length 6234 ft Runway width 118 ft
Runway elevation 8256 ft Runway displaced threshold 0 ft Runway heading 232

 AIRPORT FREQUENCIES
Type APP Name APP/TWR Frequency 122.3 MHZ
Type GND Name GND Frequency 121.9 MHZ
Type RDO Name CUENCA RDO Frequency 126.9 MHZ

 AIRPORT NEAR NAVIGATION AIDS
Type NDB Name Cuenca Frequency 221 KHZ
Type VOR-DME Name Cuenca Frequency 114500 KHZ